createdAt,value
2017-01-15T00:00:07.976Z,75.16
2017-01-15T00:01:07.685Z,74.75
2017-01-15T00:02:08.241Z,74.24
2017-01-15T00:03:07.912Z,73.56
2017-01-15T00:04:08.502Z,73.91
2017-01-15T00:05:08.069Z,74.45
2017-01-15T00:06:07.712Z,74.18
2017-01-15T00:07:08.387Z,74.62
2017-01-15T00:08:08.007Z,73.77
2017-01-15T00:09:07.786Z,74.23
2017-01-15T00:10:08.428Z,73.29
2017-01-15T00:11:08.031Z,73.66
2017-01-15T00:12:07.671Z,73.76
2017-01-15T00:13:08.202Z,73.78
2017-01-15T00:14:08.017Z,75.09
2017-01-15T00:15:07.647Z,75.19
2017-01-15T00:16:08.246Z,77.00
2017-01-15T00:17:07.859Z,76.15
2017-01-15T00:18:07.802Z,75.36
2017-01-15T00:19:08.351Z,75.01
2017-01-15T00:20:08.120Z,75.47
2017-01-15T00:21:07.796Z,74.81
2017-01-15T00:22:09.301Z,74.14
2017-01-15T00:23:07.779Z,74.60
2017-01-15T00:24:08.263Z,75.40
2017-01-15T00:25:08.097Z,74.85
2017-01-15T00:26:07.918Z,74.80
2017-01-15T00:27:08.599Z,74.83
2017-01-15T00:28:08.207Z,74.68
2017-01-15T00:29:08.010Z,75.18
2017-01-15T00:30:07.665Z,75.30
2017-01-15T00:31:08.143Z,75.49
2017-01-15T00:32:07.937Z,77.14
2017-01-15T00:33:08.384Z,77.44
2017-01-15T00:34:08.178Z,77.09
2017-01-15T00:35:07.867Z,77.17
2017-01-15T00:36:08.419Z,77.94
2017-01-15T00:37:07.999Z,78.11
2017-01-15T00:38:07.756Z,78.13
2017-01-15T00:39:08.178Z,79.16
2017-01-15T00:40:07.647Z,80.34
2017-01-15T00:41:08.159Z,80.28
2017-01-15T00:42:07.859Z,80.73
2017-01-15T00:43:08.698Z,79.99
2017-01-15T00:44:08.226Z,82.51
2017-01-15T00:45:08.045Z,81.35
2017-01-15T00:46:07.707Z,80.81
2017-01-15T00:47:08.263Z,80.83
2017-01-15T00:48:07.709Z,81.78
2017-01-15T00:49:08.347Z,80.61
2017-01-15T00:50:08.204Z,82.40
2017-01-15T00:51:08.036Z,80.66
2017-01-15T00:52:07.767Z,80.44
2017-01-15T00:53:08.321Z,80.50
2017-01-15T00:54:07.957Z,83.01
2017-01-15T00:55:07.707Z,83.38
2017-01-15T00:56:08.249Z,83.52
2017-01-15T00:57:07.965Z,82.93
2017-01-15T00:58:07.567Z,83.50
2017-01-15T00:59:08.487Z,84.84
2017-01-15T01:00:08.098Z,83.75
2017-01-15T01:01:07.675Z,82.41
2017-01-15T01:02:08.262Z,82.46
2017-01-15T01:03:07.781Z,81.74
2017-01-15T01:04:08.541Z,81.73
2017-01-15T01:05:08.484Z,81.15
2017-01-15T01:06:08.035Z,82.00
2017-01-15T01:07:07.740Z,80.93
2017-01-15T01:08:08.204Z,81.40
2017-01-15T01:09:07.942Z,83.17
2017-01-15T01:10:07.852Z,83.09
2017-01-15T01:11:08.512Z,83.33
2017-01-15T01:12:08.046Z,85.31
2017-01-15T01:13:07.644Z,85.45
2017-01-15T01:14:08.191Z,83.13
2017-01-15T01:15:07.892Z,83.02
2017-01-15T01:16:08.332Z,82.68
2017-01-15T01:17:08.159Z,85.47
2017-01-15T01:18:07.943Z,83.73
2017-01-15T01:19:07.623Z,83.03
2017-01-15T01:20:08.174Z,83.37
2017-01-15T01:21:07.643Z,82.10
2017-01-15T01:22:08.212Z,82.87
2017-01-15T01:23:07.881Z,84.03
2017-01-15T01:24:08.467Z,81.46
2017-01-15T01:25:08.063Z,80.44
2017-01-15T01:26:07.829Z,79.05
2017-01-15T01:27:08.433Z,79.41
2017-01-15T01:28:08.136Z,80.89
2017-01-15T01:29:07.886Z,81.11
2017-01-15T01:30:08.414Z,82.99
2017-01-15T01:31:08.073Z,83.22
2017-01-15T01:32:07.884Z,81.96
2017-01-15T01:33:08.341Z,80.00
2017-01-15T01:34:07.873Z,80.45
2017-01-15T01:35:08.369Z,85.09
2017-01-15T01:36:08.250Z,87.60
2017-01-15T01:37:07.847Z,86.05
2017-01-15T01:38:08.378Z,84.56
2017-01-15T01:39:07.990Z,82.40
2017-01-15T01:40:07.628Z,81.53
2017-01-15T01:41:08.121Z,87.80
2017-01-15T01:42:07.861Z,84.49
2017-01-15T01:43:08.351Z,87.50
2017-01-15T01:44:07.910Z,86.04
2017-01-15T01:45:08.440Z,88.58
2017-01-15T01:46:08.113Z,87.70
2017-01-15T01:47:07.713Z,86.67
2017-01-15T01:48:08.231Z,83.52
2017-01-15T01:49:08.040Z,83.09
2017-01-15T01:50:07.689Z,84.89
2017-01-15T01:51:08.282Z,87.26
2017-01-15T01:52:08.042Z,91.29
2017-01-15T01:53:07.874Z,91.34
2017-01-15T01:54:08.352Z,89.93
2017-01-15T01:55:07.900Z,91.06
2017-01-15T01:56:08.636Z,96.00
2017-01-15T01:57:08.512Z,99.08
2017-01-15T01:58:08.390Z,95.18
2017-01-15T01:59:08.081Z,94.02
2017-01-15T02:00:26.519Z,97.66
2017-01-15T02:01:08.349Z,97.74
2017-01-15T02:02:07.779Z,98.90
2017-01-15T02:03:08.217Z,98.88
2017-01-15T02:04:07.774Z,100.00
2017-01-15T02:05:08.454Z,95.75
2017-01-15T02:06:08.174Z,99.44
2017-01-15T02:07:07.905Z,97.62
2017-01-15T02:08:08.667Z,95.44
2017-01-15T02:09:08.177Z,98.41
2017-01-15T02:10:08.051Z,94.22
2017-01-15T02:11:07.888Z,97.59
2017-01-15T02:12:08.529Z,96.97
2017-01-15T02:13:08.236Z,98.64
2017-01-15T02:14:07.937Z,100.00
2017-01-15T02:15:07.746Z,98.63
2017-01-15T02:16:08.400Z,98.15
2017-01-15T02:17:08.173Z,97.39
2017-01-15T02:18:08.025Z,96.72
2017-01-15T02:19:07.655Z,93.40
2017-01-15T02:20:08.315Z,96.58
2017-01-15T02:21:08.118Z,93.84
2017-01-15T02:22:07.945Z,91.88
2017-01-15T02:23:07.588Z,90.23
2017-01-15T02:24:08.368Z,90.57
2017-01-15T02:25:08.035Z,87.90
2017-01-15T02:26:07.821Z,87.93
2017-01-15T02:27:08.526Z,87.60
2017-01-15T02:28:08.265Z,89.01
2017-01-15T02:29:07.974Z,87.66
2017-01-15T02:30:07.738Z,86.73
2017-01-15T02:31:08.323Z,85.52
2017-01-15T02:32:08.194Z,87.20
2017-01-15T02:33:07.966Z,88.19
2017-01-15T02:34:07.944Z,87.15
2017-01-15T02:35:07.701Z,87.37
2017-01-15T02:36:08.317Z,86.56
2017-01-15T02:37:08.041Z,87.01
2017-01-15T02:38:07.769Z,87.14
2017-01-15T02:39:08.484Z,84.57
2017-01-15T02:40:08.186Z,84.90
2017-01-15T02:41:07.728Z,84.24
2017-01-15T02:42:08.433Z,83.30
2017-01-15T02:43:08.206Z,82.81
2017-01-15T02:44:08.272Z,83.09
2017-01-15T02:45:07.955Z,82.54
2017-01-15T02:46:07.660Z,81.93
2017-01-15T02:47:08.313Z,83.53
2017-01-15T02:48:08.012Z,82.52
2017-01-15T02:49:07.662Z,82.56
2017-01-15T02:50:08.186Z,82.83
2017-01-15T02:51:07.944Z,81.77
2017-01-15T02:52:07.971Z,80.03
2017-01-15T02:53:07.934Z,80.07
2017-01-15T02:54:07.928Z,79.77
2017-01-15T02:55:07.635Z,81.59
2017-01-15T02:56:08.343Z,81.26
2017-01-15T02:57:07.964Z,81.76
2017-01-15T02:58:07.659Z,81.72
2017-01-15T02:59:08.245Z,81.53
2017-01-15T03:00:07.902Z,80.49
2017-01-15T03:01:08.445Z,80.80
2017-01-15T03:02:08.164Z,81.01
2017-01-15T03:03:07.835Z,79.78
2017-01-15T03:04:08.125Z,82.62
2017-01-15T03:05:07.834Z,82.44
2017-01-15T03:06:08.708Z,82.67
2017-01-15T03:07:08.287Z,82.68
2017-01-15T03:08:08.065Z,81.77
2017-01-15T03:09:07.932Z,81.04
2017-01-15T03:10:07.619Z,81.36
2017-01-15T03:11:08.393Z,81.06
2017-01-15T03:12:08.062Z,81.33
2017-01-15T03:13:07.955Z,81.85
2017-01-15T03:14:07.810Z,81.97
2017-01-15T03:15:08.316Z,82.51
2017-01-15T03:16:08.051Z,82.28
2017-01-15T03:17:07.761Z,80.76
2017-01-15T03:18:08.357Z,81.46
2017-01-15T03:19:08.061Z,80.75
2017-01-15T03:20:07.876Z,80.24
2017-01-15T03:21:08.468Z,80.31
2017-01-15T03:22:08.271Z,79.79
2017-01-15T03:23:07.920Z,79.38
2017-01-15T03:24:08.394Z,79.53
2017-01-15T03:25:08.276Z,80.04
2017-01-15T03:26:07.976Z,80.62
2017-01-15T03:27:07.685Z,80.07
2017-01-15T03:28:08.413Z,79.03
2017-01-15T03:29:08.083Z,77.97
2017-01-15T03:30:07.906Z,79.10
2017-01-15T03:31:08.419Z,79.11
2017-01-15T03:32:08.186Z,79.02
2017-01-15T03:33:07.999Z,78.46
2017-01-15T03:34:07.599Z,78.54
2017-01-15T03:35:08.248Z,78.27
2017-01-15T03:36:07.945Z,77.83
2017-01-15T03:37:07.902Z,77.26
2017-01-15T03:38:08.384Z,78.23
2017-01-15T03:39:07.974Z,77.84
2017-01-15T03:40:07.586Z,77.67
2017-01-15T03:41:08.224Z,76.83
2017-01-15T03:42:07.851Z,76.48
2017-01-15T03:43:08.541Z,77.02
2017-01-15T03:44:08.111Z,77.67
2017-01-15T03:45:07.756Z,78.36
2017-01-15T03:46:08.461Z,77.56
2017-01-15T03:47:08.157Z,76.80
2017-01-15T03:48:07.835Z,76.43
2017-01-15T03:49:08.582Z,76.60
2017-01-15T03:50:08.315Z,76.72
2017-01-15T03:51:07.975Z,76.72
2017-01-15T03:52:07.575Z,76.47
2017-01-15T03:53:08.229Z,76.04
2017-01-15T03:54:07.943Z,75.76
2017-01-15T03:55:07.656Z,75.93
2017-01-15T03:56:08.164Z,75.97
2017-01-15T03:57:08.453Z,76.46
2017-01-15T03:58:08.196Z,76.57
2017-01-15T03:59:07.926Z,76.38
2017-01-15T04:00:26.656Z,76.13
2017-01-15T04:01:08.402Z,75.92
2017-01-15T04:02:08.033Z,75.61
2017-01-15T04:03:07.608Z,75.55
2017-01-15T04:04:07.675Z,75.99
2017-01-15T04:05:08.287Z,75.69
2017-01-15T04:06:07.996Z,76.01
2017-01-15T04:07:07.675Z,75.68
2017-01-15T04:08:08.467Z,76.10
2017-01-15T04:09:08.094Z,75.98
2017-01-15T04:10:07.854Z,75.84
2017-01-15T04:11:08.337Z,75.93
2017-01-15T04:12:08.162Z,75.59
2017-01-15T04:13:07.852Z,75.82
2017-01-15T04:14:08.751Z,75.92
2017-01-15T04:15:08.318Z,75.75
2017-01-15T04:16:08.130Z,75.14
2017-01-15T04:17:07.938Z,74.95
2017-01-15T04:18:07.586Z,74.22
2017-01-15T04:19:08.325Z,75.76
2017-01-15T04:20:08.032Z,76.25
2017-01-15T04:21:07.895Z,77.67
2017-01-15T04:22:08.449Z,76.16
2017-01-15T04:23:08.127Z,76.86
2017-01-15T04:24:07.796Z,76.59
2017-01-15T04:25:08.401Z,79.15
2017-01-15T04:26:08.162Z,81.04
2017-01-15T04:27:08.003Z,85.60
2017-01-15T04:28:07.681Z,85.23
2017-01-15T04:29:08.552Z,81.34
2017-01-15T04:30:08.420Z,81.27
2017-01-15T04:31:08.211Z,80.53
2017-01-15T04:32:07.838Z,78.84
2017-01-15T04:33:08.286Z,78.13
2017-01-15T04:34:07.939Z,78.37
2017-01-15T04:35:07.677Z,78.01
2017-01-15T04:36:08.333Z,77.88
2017-01-15T04:37:08.034Z,77.74
2017-01-15T04:38:07.624Z,76.33
2017-01-15T04:39:08.355Z,80.99
2017-01-15T04:40:08.193Z,79.55
2017-01-15T04:41:07.866Z,78.26
2017-01-15T04:42:08.392Z,78.19
2017-01-15T04:43:08.055Z,76.25
2017-01-15T04:44:07.494Z,76.93
2017-01-15T04:45:08.435Z,76.30
2017-01-15T04:46:08.028Z,76.36
2017-01-15T04:47:07.706Z,75.60
2017-01-15T04:48:08.499Z,75.95
2017-01-15T04:49:08.294Z,75.40
2017-01-15T04:50:07.945Z,75.39
2017-01-15T04:51:07.697Z,75.71
2017-01-15T04:52:08.320Z,75.50
2017-01-15T04:53:08.103Z,75.38
2017-01-15T04:54:07.826Z,74.56
2017-01-15T04:55:08.442Z,73.97
2017-01-15T04:56:08.080Z,73.85
2017-01-15T04:57:07.752Z,74.48
2017-01-15T04:58:08.324Z,75.67
2017-01-15T04:59:08.000Z,76.08
2017-01-15T05:00:07.835Z,77.78
2017-01-15T05:01:08.646Z,81.72
2017-01-15T05:02:08.273Z,85.31
2017-01-15T05:03:07.877Z,89.13
2017-01-15T05:04:08.405Z,88.36
2017-01-15T05:05:08.192Z,85.73
2017-01-15T05:06:08.031Z,83.62
2017-01-15T05:07:07.743Z,85.23
2017-01-15T05:08:08.598Z,81.82
2017-01-15T05:09:08.268Z,81.78
2017-01-15T05:10:08.138Z,79.14
2017-01-15T05:11:07.947Z,79.06
2017-01-15T05:12:07.597Z,78.92
2017-01-15T05:13:08.382Z,78.54
2017-01-15T05:14:08.124Z,78.28
2017-01-15T05:15:08.175Z,77.50
2017-01-15T05:16:07.872Z,77.62
2017-01-15T05:17:08.682Z,78.08
2017-01-15T05:18:08.271Z,77.42
2017-01-15T05:19:08.038Z,77.71
2017-01-15T05:20:07.929Z,77.54
2017-01-15T05:21:07.549Z,77.65
2017-01-15T05:22:08.196Z,77.07
2017-01-15T05:23:07.795Z,77.26
2017-01-15T05:24:08.561Z,76.87
2017-01-15T05:25:11.056Z,75.91
2017-01-15T05:26:08.360Z,75.75
2017-01-15T05:27:08.142Z,76.13
2017-01-15T05:28:07.814Z,76.17
2017-01-15T05:29:08.405Z,75.66
2017-01-15T05:30:08.037Z,76.42
2017-01-15T05:31:07.707Z,76.42
2017-01-15T05:32:08.636Z,76.11
2017-01-15T05:33:08.222Z,76.71
2017-01-15T05:34:07.891Z,76.08
2017-01-15T05:35:08.414Z,76.28
2017-01-15T05:36:08.214Z,76.22
2017-01-15T05:37:08.031Z,76.61
2017-01-15T05:38:07.737Z,76.23
2017-01-15T05:39:08.520Z,76.47
2017-01-15T05:40:08.186Z,75.64
2017-01-15T05:41:07.944Z,75.03
2017-01-15T05:42:07.670Z,74.80
2017-01-15T05:43:08.567Z,74.64
2017-01-15T05:44:08.244Z,74.29
2017-01-15T05:45:07.952Z,75.24
2017-01-15T05:46:07.703Z,75.58
2017-01-15T05:47:09.885Z,75.62
2017-01-15T05:48:07.892Z,75.53
2017-01-15T05:49:08.664Z,76.06
2017-01-15T05:50:08.481Z,74.95
2017-01-15T05:51:08.117Z,75.28
2017-01-15T05:52:07.676Z,75.53
2017-01-15T05:53:08.377Z,75.01
2017-01-15T05:54:08.282Z,74.89
2017-01-15T05:55:08.054Z,75.68
2017-01-15T05:56:07.904Z,75.29
2017-01-15T05:57:08.635Z,74.10
2017-01-15T05:58:08.527Z,74.24
2017-01-15T05:59:08.274Z,73.86
2017-01-15T06:00:07.808Z,74.15
2017-01-15T06:01:08.303Z,73.71
2017-01-15T06:02:08.172Z,73.63
2017-01-15T06:03:07.907Z,73.89
2017-01-15T06:04:08.550Z,74.55
2017-01-15T06:05:08.295Z,74.23
2017-01-15T06:06:07.747Z,73.93
2017-01-15T06:07:07.749Z,73.94
2017-01-15T06:08:08.407Z,74.44
2017-01-15T06:09:08.123Z,74.36
2017-01-15T06:10:08.177Z,73.96
2017-01-15T06:11:07.810Z,73.71
2017-01-15T06:12:08.387Z,74.90
2017-01-15T06:13:08.055Z,73.39
2017-01-15T06:14:08.009Z,73.98
2017-01-15T06:15:07.747Z,73.38
2017-01-15T06:16:08.419Z,73.59
2017-01-15T06:17:08.227Z,74.14
2017-01-15T06:18:07.888Z,73.13
2017-01-15T06:19:08.447Z,73.60
2017-01-15T06:20:08.131Z,73.09
2017-01-15T06:21:07.797Z,73.68
2017-01-15T06:22:08.388Z,73.74
2017-01-15T06:23:08.016Z,73.16
2017-01-15T06:24:07.519Z,73.57
2017-01-15T06:25:07.913Z,73.56
2017-01-15T06:26:08.784Z,73.83
2017-01-15T06:27:09.347Z,72.57
2017-01-15T06:28:08.456Z,72.60
2017-01-15T06:29:08.030Z,72.45
2017-01-15T06:30:07.831Z,72.50
2017-01-15T06:31:08.469Z,73.29
2017-01-15T06:32:08.079Z,72.97
2017-01-15T06:33:08.877Z,72.75
2017-01-15T06:34:08.670Z,73.52
2017-01-15T06:35:08.430Z,73.89
2017-01-15T06:36:08.103Z,75.80
2017-01-15T06:37:07.769Z,77.04
2017-01-15T06:38:08.370Z,75.55
2017-01-15T06:39:08.205Z,74.90
2017-01-15T06:40:07.981Z,75.44
2017-01-15T06:41:07.763Z,77.68
2017-01-15T06:42:08.570Z,79.55
2017-01-15T06:43:08.268Z,79.48
2017-01-15T06:44:07.866Z,77.84
2017-01-15T06:45:09.172Z,79.63
2017-01-15T06:46:07.815Z,79.82
2017-01-15T06:47:08.243Z,80.96
2017-01-15T06:48:08.650Z,83.85
2017-01-15T06:49:08.371Z,82.91
2017-01-15T06:50:08.066Z,89.56
2017-01-15T06:51:07.811Z,97.71
2017-01-15T06:52:08.495Z,100.00
2017-01-15T06:53:08.272Z,100.00
2017-01-15T06:54:07.962Z,99.06
2017-01-15T06:55:07.992Z,100.00
2017-01-15T06:56:07.612Z,100.00
2017-01-15T06:57:08.460Z,100.00
2017-01-15T06:58:08.066Z,99.29
2017-01-15T06:59:07.682Z,99.78
2017-01-15T07:00:08.459Z,100.00
2017-01-15T07:01:08.223Z,99.58
2017-01-15T07:02:08.682Z,99.75
2017-01-15T07:03:08.528Z,93.54
2017-01-15T07:04:33.831Z,93.64
2017-01-15T07:05:08.499Z,92.27
2017-01-15T07:06:08.302Z,91.22
2017-01-15T07:07:08.088Z,88.86
2017-01-15T07:08:07.934Z,90.38
2017-01-15T07:09:07.631Z,89.15
2017-01-15T07:10:08.269Z,88.14
2017-01-15T07:11:07.890Z,88.52
2017-01-15T07:12:08.522Z,86.92
2017-01-15T07:13:08.220Z,86.27
2017-01-15T07:14:07.842Z,86.47
2017-01-15T07:15:08.524Z,85.99
2017-01-15T07:16:08.332Z,85.27
2017-01-15T07:17:08.247Z,85.79
2017-01-15T07:18:08.159Z,86.14
2017-01-15T07:19:07.832Z,85.57
2017-01-15T07:20:08.691Z,86.10
2017-01-15T07:21:08.601Z,86.24
2017-01-15T07:22:08.287Z,86.08
2017-01-15T07:23:07.960Z,85.10
2017-01-15T07:24:07.546Z,84.36
2017-01-15T07:25:08.176Z,84.27
2017-01-15T07:26:07.976Z,84.55
2017-01-15T07:27:07.733Z,85.73
2017-01-15T07:28:18.214Z,84.62
2017-01-15T07:29:08.024Z,83.05
2017-01-15T07:30:07.781Z,83.46
2017-01-15T07:31:09.203Z,84.88
2017-01-15T07:32:08.622Z,84.20
2017-01-15T07:33:08.382Z,83.59
2017-01-15T07:34:08.086Z,83.84
2017-01-15T07:35:07.958Z,83.62
2017-01-15T07:36:07.843Z,84.15
2017-01-15T07:37:08.723Z,84.47
2017-01-15T07:38:08.350Z,85.12
2017-01-15T07:39:08.083Z,84.74
2017-01-15T07:40:07.689Z,83.14
2017-01-15T07:41:08.496Z,82.42
2017-01-15T07:42:08.231Z,81.80
2017-01-15T07:43:07.889Z,82.10
2017-01-15T07:44:08.608Z,81.66
2017-01-15T07:45:08.290Z,82.02
2017-01-15T07:46:07.898Z,81.19
2017-01-15T07:47:08.594Z,81.33
2017-01-15T07:48:22.574Z,82.21
2017-01-15T07:49:07.762Z,83.28
2017-01-15T07:50:08.460Z,81.73
2017-01-15T07:51:08.108Z,80.88
2017-01-15T07:52:07.743Z,81.97
2017-01-15T07:53:08.461Z,81.28
2017-01-15T07:54:08.103Z,84.36
2017-01-15T07:55:27.548Z,89.86
2017-01-15T07:56:08.187Z,93.20
2017-01-15T07:57:07.985Z,94.49
2017-01-15T07:58:08.471Z,88.54
2017-01-15T07:59:08.143Z,86.58
2017-01-15T08:00:07.885Z,88.79
2017-01-15T08:01:08.611Z,84.71
2017-01-15T08:02:08.370Z,84.36
2017-01-15T08:03:07.975Z,82.16
2017-01-15T08:04:07.860Z,82.90
2017-01-15T08:05:08.484Z,82.29
2017-01-15T08:06:08.158Z,80.95
2017-01-15T08:07:07.943Z,82.67
2017-01-15T08:08:07.618Z,84.42
2017-01-15T08:09:08.217Z,82.26
2017-01-15T08:10:08.264Z,80.90
2017-01-15T08:11:07.893Z,80.14
2017-01-15T08:12:08.624Z,80.76
2017-01-15T08:13:08.391Z,80.69
2017-01-15T08:14:08.230Z,79.25
2017-01-15T08:15:08.139Z,79.08
2017-01-15T08:16:07.998Z,80.13
2017-01-15T08:17:07.816Z,79.48
2017-01-15T08:18:08.684Z,78.44
2017-01-15T08:19:08.391Z,81.87
2017-01-15T08:20:08.038Z,83.98
2017-01-15T08:21:07.642Z,85.29
2017-01-15T08:22:08.215Z,86.48
2017-01-15T08:23:07.842Z,84.10
2017-01-15T08:24:08.635Z,87.60
2017-01-15T08:25:08.354Z,90.33
2017-01-15T08:26:08.159Z,95.37
2017-01-15T08:27:08.007Z,96.79
2017-01-15T08:28:07.672Z,97.34
2017-01-15T08:29:08.451Z,99.52
2017-01-15T08:30:08.334Z,95.13
2017-01-15T08:31:08.011Z,93.12
2017-01-15T08:32:07.686Z,92.53
2017-01-15T08:33:08.572Z,86.66
2017-01-15T08:34:08.357Z,86.21
2017-01-15T08:35:08.090Z,84.18
2017-01-15T08:36:07.713Z,81.91
2017-01-15T08:37:08.368Z,82.80
2017-01-15T08:38:08.056Z,82.03
2017-01-15T08:39:07.720Z,85.52
2017-01-15T08:40:08.424Z,91.23
2017-01-15T08:41:08.017Z,92.64
2017-01-15T08:42:07.866Z,94.41
2017-01-15T08:43:08.540Z,96.38
2017-01-15T08:44:08.218Z,93.79
2017-01-15T08:45:07.974Z,89.96
2017-01-15T08:46:07.776Z,95.55
2017-01-15T08:47:08.379Z,93.44
2017-01-15T08:48:08.120Z,92.07
2017-01-15T08:49:07.830Z,90.16
2017-01-15T08:51:03.145Z,88.27
2017-01-15T08:51:08.279Z,88.41
2017-01-15T08:52:08.780Z,87.31
2017-01-15T08:53:08.400Z,85.99
2017-01-15T08:54:08.048Z,85.09
2017-01-15T08:55:07.955Z,84.50
2017-01-15T08:56:08.570Z,84.75
2017-01-15T08:57:08.376Z,84.10
2017-01-15T08:58:08.076Z,82.88
2017-01-15T08:59:07.730Z,82.58
2017-01-15T09:00:09.349Z,81.65
2017-01-15T09:01:08.170Z,81.77
2017-01-15T09:02:07.739Z,81.90
2017-01-15T09:03:08.625Z,80.43
2017-01-15T09:04:08.372Z,80.39
2017-01-15T09:05:17.843Z,80.33
2017-01-15T09:06:08.716Z,78.78
2017-01-15T09:07:08.391Z,79.03
2017-01-15T09:08:08.147Z,78.13
2017-01-15T09:09:07.741Z,78.12
2017-01-15T09:10:08.428Z,77.51
2017-01-15T09:11:27.732Z,79.09
2017-01-15T09:12:08.547Z,78.08
2017-01-15T09:13:08.433Z,77.17
2017-01-15T09:14:08.368Z,76.59
2017-01-15T09:15:09.243Z,77.53
2017-01-15T09:16:08.088Z,76.58
2017-01-15T09:17:08.156Z,76.13
2017-01-15T09:18:08.033Z,75.99
2017-01-15T09:19:07.707Z,75.81
2017-01-15T09:20:09.383Z,74.43
2017-01-15T09:21:08.076Z,74.62
2017-01-15T09:22:07.787Z,74.64
2017-01-15T09:23:08.567Z,74.03
2017-01-15T09:24:08.277Z,74.82
2017-01-15T09:25:07.965Z,73.94
2017-01-15T09:26:08.382Z,74.43
2017-01-15T09:27:08.145Z,73.94
2017-01-15T09:28:17.658Z,74.43
2017-01-15T09:29:08.347Z,75.34
2017-01-15T09:30:08.393Z,74.18
2017-01-15T09:31:07.946Z,74.40
2017-01-15T09:32:08.348Z,74.04
2017-01-15T09:33:08.203Z,74.30
2017-01-15T09:34:07.969Z,73.02
2017-01-15T09:35:07.688Z,74.19
2017-01-15T09:36:08.537Z,73.38
2017-01-15T09:37:08.262Z,73.58
2017-01-15T09:38:08.013Z,73.39
2017-01-15T09:39:07.926Z,72.17
2017-01-15T09:40:08.551Z,73.73
2017-01-15T09:41:29.741Z,74.29
2017-01-15T09:42:09.221Z,72.71
2017-01-15T09:43:08.114Z,72.58
2017-01-15T09:44:07.727Z,73.16
2017-01-15T09:45:08.379Z,72.60
2017-01-15T09:46:08.042Z,71.84
2017-01-15T09:47:08.535Z,72.70
2017-01-15T09:48:08.132Z,74.42
2017-01-15T09:49:07.877Z,74.66
2017-01-15T09:50:08.564Z,75.96
2017-01-15T09:51:09.248Z,74.38
2017-01-15T09:52:07.955Z,74.46
2017-01-15T09:53:07.928Z,75.03
2017-01-15T09:54:08.594Z,75.12
2017-01-15T09:55:26.805Z,75.73
2017-01-15T09:56:09.655Z,74.61
2017-01-15T09:57:08.347Z,75.05
2017-01-15T09:58:09.257Z,85.36
2017-01-15T09:59:08.144Z,83.45
2017-01-15T10:00:07.765Z,81.61
2017-01-15T10:01:08.466Z,82.15
2017-01-15T10:02:27.775Z,83.88
2017-01-15T10:03:22.908Z,81.51
2017-01-15T10:04:08.598Z,79.97
2017-01-15T10:05:08.259Z,78.16
2017-01-15T10:06:08.010Z,82.20
2017-01-15T10:07:07.603Z,81.75
2017-01-15T10:08:08.498Z,83.03
2017-01-15T10:09:08.180Z,85.65
2017-01-15T10:10:07.958Z,82.42
2017-01-15T10:11:07.738Z,78.57
2017-01-15T10:12:08.388Z,76.75
2017-01-15T10:13:08.114Z,77.14
2017-01-15T10:14:07.797Z,76.22
2017-01-15T10:15:08.444Z,76.71
2017-01-15T10:16:08.214Z,77.71
2017-01-15T10:17:08.012Z,75.98
2017-01-15T10:18:07.792Z,78.58
2017-01-15T10:19:08.623Z,78.31
2017-01-15T10:20:08.234Z,77.64
2017-01-15T10:21:08.014Z,78.29
2017-01-15T10:22:07.739Z,80.77
2017-01-15T10:23:08.544Z,80.05
2017-01-15T10:24:08.199Z,77.18
2017-01-15T10:25:07.797Z,77.95
2017-01-15T10:26:08.571Z,78.34
2017-01-15T10:27:08.456Z,78.60
2017-01-15T10:28:08.346Z,77.84
2017-01-15T10:29:08.307Z,76.59
2017-01-15T10:30:08.165Z,75.36
2017-01-15T10:31:08.025Z,75.56
2017-01-15T10:32:07.686Z,74.99
2017-01-15T10:33:08.303Z,74.60
2017-01-15T10:34:08.039Z,73.39
2017-01-15T10:35:07.741Z,73.99
2017-01-15T10:36:08.554Z,72.21
2017-01-15T10:37:08.410Z,72.04
2017-01-15T10:38:08.080Z,71.49
2017-01-15T10:39:07.697Z,70.18
2017-01-15T10:40:09.435Z,69.72
2017-01-15T10:41:08.902Z,69.54
2017-01-15T10:42:08.625Z,68.92
2017-01-15T10:43:09.078Z,68.55
2017-01-15T10:44:07.966Z,69.41
2017-01-15T10:45:08.450Z,68.94
2017-01-15T10:46:08.119Z,69.50
2017-01-15T10:47:07.736Z,69.90
2017-01-15T10:48:08.389Z,70.31
2017-01-15T10:49:08.107Z,69.78
2017-01-15T10:50:07.890Z,69.81
2017-01-15T10:51:08.488Z,70.95
2017-01-15T10:52:08.270Z,70.94
2017-01-15T10:53:08.013Z,70.61
2017-01-15T10:54:08.069Z,70.00
2017-01-15T10:55:07.698Z,70.45
2017-01-15T10:56:09.254Z,70.12
2017-01-15T10:57:08.059Z,68.58
2017-01-15T10:58:07.778Z,70.12
2017-01-15T10:59:08.450Z,69.86
2017-01-15T11:00:08.573Z,70.53
2017-01-15T11:01:26.917Z,70.57
2017-01-15T11:02:08.590Z,68.51
2017-01-15T11:03:08.194Z,68.56
2017-01-15T11:04:07.872Z,68.43
2017-01-15T11:05:08.639Z,69.17
2017-01-15T11:06:08.245Z,69.39
2017-01-15T11:07:07.975Z,69.09
2017-01-15T11:08:07.512Z,68.83
2017-01-15T11:09:08.249Z,69.00
2017-01-15T11:10:07.896Z,69.19
2017-01-15T11:11:08.609Z,69.23
2017-01-15T11:12:08.493Z,68.10
2017-01-15T11:13:08.163Z,68.06
2017-01-15T11:14:07.808Z,68.24
2017-01-15T11:15:08.431Z,66.37
2017-01-15T11:16:08.223Z,66.36
2017-01-15T11:17:08.114Z,66.63
2017-01-15T11:18:07.821Z,66.92
2017-01-15T11:19:08.595Z,66.55
2017-01-15T11:20:09.087Z,67.26
2017-01-15T11:21:07.783Z,67.25
2017-01-15T11:22:08.541Z,66.58
2017-01-15T11:23:08.200Z,67.14
2017-01-15T11:24:08.615Z,66.40
2017-01-15T11:25:26.830Z,66.18
2017-01-15T11:26:08.404Z,66.21
2017-01-15T11:27:08.016Z,67.13
2017-01-15T11:28:07.682Z,66.54
2017-01-15T11:29:08.709Z,67.59
2017-01-15T11:30:08.547Z,67.69
2017-01-15T11:31:08.255Z,68.21
2017-01-15T11:32:07.703Z,67.69
2017-01-15T11:33:08.488Z,67.10
2017-01-15T11:34:08.231Z,67.74
2017-01-15T11:35:07.902Z,66.64
2017-01-15T11:36:08.611Z,68.23
2017-01-15T11:37:08.417Z,69.69
2017-01-15T11:38:08.057Z,72.67
2017-01-15T11:39:07.766Z,71.79
2017-01-15T11:40:08.570Z,72.04
2017-01-15T11:41:08.257Z,75.30
2017-01-15T11:42:08.062Z,78.42
2017-01-15T11:43:07.703Z,74.98
2017-01-15T11:44:08.550Z,74.56
2017-01-15T11:45:08.447Z,74.80
2017-01-15T11:46:08.352Z,74.51
2017-01-15T11:47:08.593Z,74.30
2017-01-15T11:48:08.296Z,72.40
2017-01-15T11:49:07.942Z,73.15
2017-01-15T11:50:07.744Z,73.27
2017-01-15T11:51:08.309Z,73.06
2017-01-15T11:52:07.964Z,72.82
2017-01-15T11:53:07.921Z,72.25
2017-01-15T11:54:08.562Z,72.51
2017-01-15T11:55:08.231Z,71.97
2017-01-15T11:56:07.954Z,71.50
2017-01-15T11:57:07.531Z,71.65
2017-01-15T11:58:08.150Z,71.55
2017-01-15T11:59:07.996Z,71.76
2017-01-15T12:00:07.771Z,72.44
2017-01-15T12:01:08.698Z,71.94
2017-01-15T12:02:08.556Z,76.98
2017-01-15T12:03:08.410Z,74.77
2017-01-15T12:04:08.274Z,75.72
2017-01-15T12:05:07.930Z,74.35
2017-01-15T12:06:08.286Z,73.05
2017-01-15T12:07:08.016Z,72.43
2017-01-15T12:08:07.647Z,71.76
2017-01-15T12:09:08.279Z,72.99
2017-01-15T12:10:07.961Z,72.53
2017-01-15T12:11:07.837Z,73.56
2017-01-15T12:12:08.483Z,73.28
2017-01-15T12:13:07.963Z,72.90
2017-01-15T12:14:07.953Z,73.22
2017-01-15T12:15:07.772Z,72.89
2017-01-15T12:16:08.403Z,72.63
2017-01-15T12:17:08.222Z,71.54
2017-01-15T12:18:07.922Z,71.45
2017-01-15T12:19:08.631Z,71.94
2017-01-15T12:20:08.271Z,71.85
2017-01-15T12:21:07.979Z,72.63
2017-01-15T12:22:07.789Z,71.87
2017-01-15T12:23:08.525Z,71.21
2017-01-15T12:24:08.359Z,71.12
2017-01-15T12:25:07.994Z,71.50
2017-01-15T12:26:07.860Z,70.56
2017-01-15T12:27:08.871Z,69.61
2017-01-15T12:28:08.541Z,70.43
2017-01-15T12:29:08.260Z,69.74
2017-01-15T12:31:18.042Z,69.52
2017-01-15T12:32:07.700Z,69.29
2017-01-15T12:33:08.768Z,69.00
2017-01-15T12:34:08.446Z,68.75
2017-01-15T12:35:08.076Z,68.21
2017-01-15T12:36:07.854Z,68.11
2017-01-15T12:37:08.488Z,67.57
2017-01-15T12:38:08.243Z,66.89
2017-01-15T12:39:07.870Z,66.12
2017-01-15T12:40:08.463Z,66.09
2017-01-15T12:41:08.188Z,65.83
2017-01-15T12:42:07.872Z,65.19
2017-01-15T12:43:08.693Z,64.68
2017-01-15T12:44:08.377Z,64.31
2017-01-15T12:45:07.957Z,64.92
2017-01-15T12:46:07.535Z,65.20
2017-01-15T12:47:08.149Z,65.80
2017-01-15T12:48:07.881Z,65.67
2017-01-15T12:49:08.588Z,65.47
2017-01-15T12:50:08.303Z,64.28
2017-01-15T12:51:07.980Z,64.63
2017-01-15T12:52:07.421Z,64.48
2017-01-15T12:53:07.901Z,64.61